createdAt,value
2018-08-06T00:01:41.006Z,99.90
2018-08-06T00:04:10.034Z,99.90
2018-08-06T00:06:39.052Z,99.90
2018-08-06T00:09:08.390Z,99.90
2018-08-06T00:11:37.484Z,99.90
2018-08-06T00:14:06.655Z,99.90
2018-08-06T00:16:35.857Z,99.90
2018-08-06T00:19:06.018Z,99.90
2018-08-06T00:21:35.205Z,99.90
2018-08-06T00:24:05.465Z,99.90
2018-08-06T00:26:34.497Z,99.90
2018-08-06T00:29:04.286Z,99.90
2018-08-06T00:31:33.314Z,99.90
2018-08-06T00:34:02.394Z,99.90
2018-08-06T00:36:31.527Z,99.90
2018-08-06T00:39:00.487Z,99.90
2018-08-06T00:41:29.542Z,99.90
2018-08-06T00:43:58.528Z,99.90
2018-08-06T00:46:28.462Z,99.90
2018-08-06T00:48:57.660Z,99.90
2018-08-06T00:51:26.751Z,99.90
2018-08-06T00:53:56.272Z,99.90
2018-08-06T00:56:25.470Z,99.90
2018-08-06T00:58:54.536Z,99.90
2018-08-06T01:01:23.597Z,99.90
2018-08-06T01:03:52.778Z,99.90
2018-08-06T01:06:21.891Z,99.90
2018-08-06T01:08:50.985Z,99.90
2018-08-06T01:11:20.074Z,99.90
2018-08-06T01:13:49.342Z,99.90
2018-08-06T01:16:18.301Z,99.90
2018-08-06T01:18:47.369Z,99.90
2018-08-06T01:21:16.537Z,99.90
2018-08-06T01:23:46.058Z,99.90
2018-08-06T01:26:15.268Z,99.90
2018-08-06T01:28:45.465Z,99.90
2018-08-06T01:31:14.374Z,99.90
2018-08-06T01:36:14.211Z,99.90
2018-08-06T01:41:12.077Z,99.90
2018-08-06T01:43:41.064Z,99.90
2018-08-06T01:46:10.049Z,99.90
2018-08-06T01:48:39.022Z,99.90
2018-08-06T01:51:08.098Z,99.90
2018-08-06T01:53:37.906Z,99.90
2018-08-06T01:56:07.046Z,99.90
2018-08-06T01:58:36.053Z,99.90
2018-08-06T02:01:05.014Z,99.90
2018-08-06T02:03:34.309Z,99.90
2018-08-06T02:06:03.488Z,99.90
2018-08-06T02:08:32.621Z,99.90
2018-08-06T02:11:01.795Z,99.90
2018-08-06T02:13:30.847Z,99.90
2018-08-06T02:15:59.978Z,99.90
2018-08-06T02:18:29.138Z,99.90
2018-08-06T02:20:58.105Z,99.90
2018-08-06T02:23:27.162Z,99.90
2018-08-06T02:25:56.231Z,99.90
2018-08-06T02:28:25.308Z,99.90
2018-08-06T02:30:54.747Z,99.90
2018-08-06T02:33:23.736Z,99.90
2018-08-06T02:35:52.881Z,99.90
2018-08-06T02:38:21.985Z,99.90
2018-08-06T02:40:51.199Z,99.90
2018-08-06T02:43:20.275Z,99.90
2018-08-06T02:45:49.310Z,99.90
2018-08-06T02:48:18.407Z,99.90
2018-08-06T02:50:47.454Z,99.90
2018-08-06T02:53:16.612Z,99.90
2018-08-06T02:55:45.757Z,99.90
2018-08-06T02:58:14.918Z,99.90
2018-08-06T03:00:43.830Z,99.90
2018-08-06T03:03:13.030Z,99.90
2018-08-06T03:05:41.991Z,99.90
2018-08-06T03:08:11.277Z,99.90
2018-08-06T03:10:41.085Z,99.90
2018-08-06T03:13:10.228Z,99.90
2018-08-06T03:15:39.385Z,99.90
2018-08-06T03:18:09.605Z,99.90
2018-08-06T03:20:39.333Z,99.90
2018-08-06T03:23:10.344Z,99.90
2018-08-06T03:25:40.179Z,99.90
2018-08-06T03:30:37.731Z,99.90
2018-08-06T03:33:06.835Z,99.90
2018-08-06T03:35:35.836Z,99.90
2018-08-06T03:38:04.776Z,99.90
2018-08-06T03:40:33.768Z,99.90
2018-08-06T03:43:02.924Z,99.90
2018-08-06T03:45:32.013Z,99.90
2018-08-06T03:48:00.930Z,99.90
2018-08-06T03:50:30.046Z,99.90
2018-08-06T03:52:59.406Z,99.90
2018-08-06T03:55:28.408Z,99.90
2018-08-06T03:57:57.538Z,99.90
2018-08-06T04:00:26.575Z,99.90
2018-08-06T04:02:55.799Z,99.90
2018-08-06T04:05:28.692Z,99.90
2018-08-06T04:07:57.630Z,99.90
2018-08-06T04:10:26.701Z,99.90
2018-08-06T04:12:55.721Z,99.90
2018-08-06T04:15:24.843Z,99.90
2018-08-06T04:17:53.973Z,99.90
2018-08-06T04:20:23.026Z,99.90
2018-08-06T04:22:52.654Z,99.90
2018-08-06T04:25:22.872Z,99.90
2018-08-06T04:27:51.976Z,99.90
2018-08-06T04:30:22.901Z,99.90
2018-08-06T04:32:56.128Z,99.90
2018-08-06T04:35:25.325Z,99.90
2018-08-06T04:37:56.849Z,99.90
2018-08-06T04:40:26.110Z,99.90
2018-08-06T04:42:56.293Z,99.90
2018-08-06T04:45:26.589Z,99.90
2018-08-06T04:47:55.761Z,99.90
2018-08-06T04:50:26.672Z,99.90
2018-08-06T04:52:57.819Z,99.90
2018-08-06T04:55:26.978Z,99.90
2018-08-06T04:57:56.150Z,99.90
2018-08-06T05:00:25.609Z,99.90
2018-08-06T05:02:54.815Z,99.90
2018-08-06T05:05:30.091Z,99.90
2018-08-06T05:07:59.160Z,99.90
2018-08-06T05:10:35.094Z,99.90
2018-08-06T05:13:04.361Z,99.90
2018-08-06T05:15:34.493Z,99.90
2018-08-06T05:18:06.992Z,99.90
2018-08-06T05:20:36.161Z,99.90
2018-08-06T05:23:05.276Z,99.90
2018-08-06T05:25:34.264Z,99.90
2018-08-06T05:28:03.470Z,99.90
2018-08-06T05:30:32.670Z,99.90
2018-08-06T05:33:01.839Z,99.90
2018-08-06T05:35:31.222Z,99.90
2018-08-06T05:38:00.258Z,99.90
2018-08-06T05:40:29.452Z,99.90
2018-08-06T05:43:01.320Z,99.90
2018-08-06T05:45:31.116Z,99.90
2018-08-06T05:48:00.702Z,99.90
2018-08-06T05:50:29.894Z,99.90
2018-08-06T05:52:58.984Z,99.90
2018-08-06T05:55:28.026Z,99.90
2018-08-06T05:57:57.485Z,99.90
2018-08-06T06:00:26.742Z,99.90
2018-08-06T06:05:24.446Z,99.90
2018-08-06T06:07:53.559Z,99.90
2018-08-06T06:10:34.950Z,99.90
2018-08-06T06:13:04.899Z,99.90
2018-08-06T06:15:34.090Z,99.90
2018-08-06T06:18:03.227Z,99.90
2018-08-06T06:20:32.396Z,99.90
2018-08-06T06:23:01.463Z,99.90
2018-08-06T06:25:30.797Z,99.90
2018-08-06T06:27:59.967Z,99.90
2018-08-06T06:30:29.173Z,99.90
2018-08-06T06:32:58.343Z,99.90
2018-08-06T06:35:28.426Z,99.90
2018-08-06T06:37:57.747Z,99.90
2018-08-06T06:40:26.999Z,99.90
2018-08-06T06:42:56.143Z,99.90
2018-08-06T06:45:25.253Z,99.90
2018-08-06T06:47:54.325Z,99.90
2018-08-06T06:50:23.348Z,99.90
2018-08-06T06:52:52.470Z,99.90
2018-08-06T06:58:07.829Z,99.90
2018-08-06T07:00:36.873Z,99.90
2018-08-06T07:03:06.790Z,99.90
2018-08-06T07:05:35.994Z,99.90
2018-08-06T07:08:05.066Z,99.90
2018-08-06T07:10:34.175Z,99.90
2018-08-06T07:13:03.411Z,99.90
2018-08-06T07:15:32.615Z,99.90
2018-08-06T07:18:01.655Z,99.90
2018-08-06T07:20:30.824Z,99.90
2018-08-06T07:22:59.943Z,99.90
2018-08-06T07:25:29.201Z,99.90
2018-08-06T07:27:58.202Z,99.90
2018-08-06T07:30:28.878Z,99.90
2018-08-06T07:32:58.050Z,99.90
2018-08-06T07:35:27.328Z,99.90
2018-08-06T07:37:56.412Z,99.90
2018-08-06T07:40:25.409Z,99.90
2018-08-06T07:42:54.598Z,99.90
2018-08-06T07:45:23.725Z,99.90
2018-08-06T07:47:52.753Z,99.90
2018-08-06T07:50:21.891Z,99.90
2018-08-06T07:52:51.081Z,99.90
2018-08-06T07:55:20.052Z,99.90
2018-08-06T07:57:49.184Z,99.90
2018-08-06T08:00:19.576Z,99.90
2018-08-06T08:02:48.742Z,99.90
2018-08-06T08:05:18.782Z,99.90
2018-08-06T08:07:48.554Z,99.90
2018-08-06T08:10:19.666Z,99.90
2018-08-06T08:12:48.902Z,99.90
2018-08-06T08:15:20.611Z,99.90
2018-08-06T08:17:49.753Z,99.90
2018-08-06T08:20:19.193Z,99.90
2018-08-06T08:22:48.296Z,99.90
2018-08-06T08:25:20.590Z,99.90
2018-08-06T08:27:49.639Z,99.90
2018-08-06T08:30:20.206Z,99.90
2018-08-06T08:32:50.008Z,99.90
2018-08-06T08:35:19.177Z,99.90
2018-08-06T08:37:48.193Z,99.90
2018-08-06T08:40:18.754Z,99.90
2018-08-06T08:42:47.821Z,99.90
2018-08-06T08:45:18.000Z,99.90
2018-08-06T08:47:47.150Z,99.90
2018-08-06T08:50:18.725Z,99.90
2018-08-06T08:52:47.857Z,99.90
2018-08-06T08:55:18.149Z,99.90
2018-08-06T08:57:47.342Z,99.90
2018-08-06T09:00:21.076Z,99.90
2018-08-06T09:02:51.082Z,99.90
2018-08-06T09:05:20.483Z,99.90
2018-08-06T09:07:50.777Z,99.90
2018-08-06T09:10:20.426Z,99.90
2018-08-06T09:12:49.476Z,99.90
2018-08-06T09:15:21.144Z,99.90
2018-08-06T09:17:50.325Z,99.90
2018-08-06T09:20:19.417Z,99.90
2018-08-06T09:22:48.693Z,99.90
2018-08-06T09:25:17.832Z,99.90
2018-08-06T09:27:48.279Z,99.90
2018-08-06T09:30:19.685Z,99.90
2018-08-06T09:32:50.143Z,99.90
2018-08-06T09:35:20.316Z,99.90
2018-08-06T09:37:49.423Z,99.90
2018-08-06T09:40:20.293Z,99.90
2018-08-06T09:42:49.787Z,99.90
2018-08-06T09:45:20.014Z,99.90
2018-08-06T09:47:50.359Z,99.90
2018-08-06T09:50:20.386Z,99.90
2018-08-06T09:52:52.098Z,99.90
2018-08-06T09:55:24.421Z,99.90
2018-08-06T09:57:54.341Z,99.90
2018-08-06T10:00:28.801Z,99.90
2018-08-06T10:02:59.321Z,99.90
2018-08-06T10:05:29.156Z,99.90
2018-08-06T10:07:58.466Z,99.90
2018-08-06T10:10:27.547Z,99.90
2018-08-06T10:12:56.989Z,99.90
2018-08-06T10:15:28.058Z,99.90
2018-08-06T10:17:58.341Z,99.90
2018-08-06T10:20:27.520Z,99.90
2018-08-06T10:22:56.625Z,99.90
2018-08-06T10:25:26.622Z,99.90
2018-08-06T10:27:55.700Z,99.90
2018-08-06T10:30:24.762Z,99.90
2018-08-06T10:32:53.927Z,99.90
2018-08-06T10:35:23.176Z,99.90
2018-08-06T10:37:52.394Z,99.90
2018-08-06T10:40:22.541Z,99.90
2018-08-06T10:42:51.797Z,99.90
2018-08-06T10:45:22.219Z,99.90
2018-08-06T10:47:52.449Z,99.90
2018-08-06T10:50:21.477Z,99.90
2018-08-06T10:52:50.685Z,99.90
2018-08-06T10:55:19.792Z,99.90
2018-08-06T10:57:49.010Z,99.90
2018-08-06T11:00:20.447Z,99.90
2018-08-06T11:02:50.144Z,99.90
2018-08-06T11:05:19.706Z,99.90
2018-08-06T11:07:48.843Z,99.90
2018-08-06T11:10:22.277Z,99.90
2018-08-06T11:12:52.334Z,99.90
2018-08-06T11:15:22.958Z,99.90
2018-08-06T11:17:52.057Z,99.90
2018-08-06T11:20:21.690Z,99.90
2018-08-06T11:22:51.200Z,99.90
2018-08-06T11:25:21.922Z,99.90
2018-08-06T11:27:51.458Z,99.90
2018-08-06T11:30:21.628Z,99.90
2018-08-06T11:32:51.382Z,99.60
2018-08-06T11:35:21.565Z,98.90
2018-08-06T11:37:51.733Z,98.50
2018-08-06T11:40:20.835Z,98.90
2018-08-06T11:42:50.841Z,99.10
2018-08-06T11:45:21.687Z,98.80
2018-08-06T11:47:51.130Z,98.50
2018-08-06T11:50:20.432Z,98.10
2018-08-06T11:52:49.781Z,97.80
2018-08-06T11:55:19.066Z,97.20
2018-08-06T11:57:48.239Z,96.90
2018-08-06T12:00:19.427Z,96.70
2018-08-06T12:02:48.580Z,96.60
2018-08-06T12:05:17.882Z,96.20
2018-08-06T12:07:47.830Z,96.20
2018-08-06T12:10:18.212Z,95.60
2018-08-06T12:12:48.611Z,95.60
2018-08-06T12:15:17.746Z,95.30
2018-08-06T12:17:46.928Z,95.10
2018-08-06T12:20:24.338Z,95.00
2018-08-06T12:22:53.538Z,94.70
2018-08-06T12:25:22.758Z,94.30
2018-08-06T12:27:52.377Z,94.10
2018-08-06T12:30:22.894Z,94.30
2018-08-06T12:32:53.149Z,94.10
2018-08-06T12:37:51.124Z,94.30
2018-08-06T12:40:21.628Z,94.60
2018-08-06T12:42:51.070Z,93.70
2018-08-06T12:45:20.267Z,93.90
2018-08-06T12:47:49.335Z,93.20
2018-08-06T12:50:18.585Z,93.00
2018-08-06T12:52:47.868Z,93.20
2018-08-06T12:55:18.182Z,93.20
2018-08-06T13:00:24.508Z,93.20
2018-08-06T13:02:54.021Z,92.90
2018-08-06T13:05:23.872Z,92.70
2018-08-06T13:07:53.169Z,92.20
2018-08-06T13:10:22.548Z,91.80
2018-08-06T13:12:52.294Z,91.70
2018-08-06T13:15:21.338Z,91.50
2018-08-06T13:17:50.722Z,91.20
2018-08-06T13:20:19.930Z,90.90
2018-08-06T13:22:49.096Z,90.90
2018-08-06T13:25:18.787Z,90.60
2018-08-06T13:27:47.799Z,90.50
2018-08-06T13:30:16.927Z,90.30
2018-08-06T13:32:46.313Z,89.60
2018-08-06T13:35:15.876Z,89.60
2018-08-06T13:37:45.971Z,89.20
2018-08-06T13:40:15.606Z,88.60
2018-08-06T13:42:45.565Z,88.20
2018-08-06T13:45:14.824Z,86.70
2018-08-06T13:47:44.025Z,86.80
2018-08-06T13:52:43.238Z,86.40
2018-08-06T13:55:18.449Z,86.30
2018-08-06T13:57:50.980Z,86.30
2018-08-06T14:00:20.609Z,85.40
2018-08-06T14:02:50.940Z,84.80
2018-08-06T14:05:20.416Z,84.80
2018-08-06T14:07:50.185Z,84.90
2018-08-06T14:10:19.484Z,84.20
2018-08-06T14:12:48.550Z,83.20
2018-08-06T14:15:17.983Z,82.40
2018-08-06T14:17:47.078Z,81.70
2018-08-06T14:20:18.774Z,81.30
2018-08-06T14:22:47.866Z,81.10
2018-08-06T14:25:17.014Z,79.20
2018-08-06T14:30:16.280Z,78.60
2018-08-06T14:32:48.637Z,78.30
2018-08-06T14:35:18.325Z,78.00
2018-08-06T14:37:47.515Z,77.70
2018-08-06T14:40:17.847Z,77.00
2018-08-06T14:42:47.507Z,76.50
2018-08-06T14:45:17.001Z,76.70
2018-08-06T14:47:46.807Z,75.70
2018-08-06T14:50:16.221Z,75.00
2018-08-06T14:52:45.253Z,74.50
2018-08-06T14:55:14.481Z,74.10
2018-08-06T14:57:43.631Z,73.80
2018-08-06T15:00:21.620Z,73.50
2018-08-06T15:02:53.334Z,73.80
2018-08-06T15:05:22.793Z,72.80
2018-08-06T15:07:55.248Z,71.30
2018-08-06T15:10:25.567Z,70.80
2018-08-06T15:12:54.892Z,70.50
2018-08-06T15:15:24.291Z,69.60
2018-08-06T15:17:54.057Z,69.30
2018-08-06T15:20:23.161Z,68.90
2018-08-06T15:25:22.950Z,69.30
2018-08-06T15:27:52.209Z,68.50
2018-08-06T15:30:22.505Z,68.00
2018-08-06T15:32:52.106Z,67.70
2018-08-06T15:35:22.445Z,66.60
2018-08-06T15:37:51.559Z,65.80
2018-08-06T15:40:21.344Z,64.80
2018-08-06T15:42:50.861Z,65.10
2018-08-06T15:45:20.280Z,65.10
2018-08-06T15:47:49.333Z,64.50
2018-08-06T15:50:20.225Z,64.00
2018-08-06T15:52:49.439Z,61.30
2018-08-06T15:55:18.595Z,61.00
2018-08-06T15:57:47.928Z,61.40
2018-08-06T16:00:19.540Z,61.20
2018-08-06T16:02:49.763Z,61.40
2018-08-06T16:05:23.810Z,61.70
2018-08-06T16:07:53.142Z,61.50
2018-08-06T16:12:51.560Z,60.90
2018-08-06T16:15:20.718Z,59.40
2018-08-06T16:17:49.833Z,58.50
2018-08-06T16:20:19.531Z,58.50
2018-08-06T16:22:49.036Z,58.40
2018-08-06T16:25:18.170Z,57.90
2018-08-06T16:27:50.362Z,58.60
2018-08-06T16:30:22.599Z,58.40
2018-08-06T16:32:51.824Z,58.30
2018-08-06T16:35:22.618Z,58.40
2018-08-06T16:37:53.367Z,58.10
2018-08-06T16:40:22.996Z,58.40
2018-08-06T16:42:52.437Z,58.30
2018-08-06T16:45:21.989Z,57.90
2018-08-06T16:47:51.450Z,57.20
2018-08-06T16:50:20.794Z,57.40
2018-08-06T16:52:50.298Z,57.10
2018-08-06T16:55:19.436Z,57.00
2018-08-06T16:57:48.880Z,56.70
2018-08-06T17:00:19.552Z,57.00
2018-08-06T17:02:49.590Z,56.50
2018-08-06T17:05:18.616Z,56.80
2018-08-06T17:07:49.602Z,56.90
2018-08-06T17:10:19.747Z,56.50
2018-08-06T17:13:00.706Z,56.70
2018-08-06T17:15:32.627Z,56.50
2018-08-06T17:18:11.639Z,56.70
2018-08-06T17:20:51.517Z,56.70
2018-08-06T17:23:22.138Z,56.80
2018-08-06T17:26:01.744Z,56.70
2018-08-06T17:31:22.027Z,56.50
2018-08-06T17:33:52.277Z,56.90
2018-08-06T17:38:53.097Z,57.10
2018-08-06T17:41:22.286Z,56.70
2018-08-06T17:43:51.531Z,56.80
2018-08-06T17:46:20.669Z,57.10
2018-08-06T17:48:49.907Z,57.40
2018-08-06T17:51:19.062Z,58.20
2018-08-06T17:53:51.925Z,58.70
2018-08-06T17:58:50.299Z,58.80
2018-08-06T18:01:19.584Z,59.40
2018-08-06T18:03:49.846Z,59.90
2018-08-06T18:06:27.056Z,59.70
2018-08-06T18:09:00.059Z,59.50
2018-08-06T18:11:32.859Z,59.50
2018-08-06T18:14:02.359Z,59.70
2018-08-06T18:16:32.647Z,59.80
2018-08-06T18:19:01.794Z,59.90
2018-08-06T18:21:31.114Z,60.00
2018-08-06T18:24:00.684Z,60.00
2018-08-06T18:26:29.740Z,60.10
2018-08-06T18:28:59.050Z,60.40
2018-08-06T18:31:28.238Z,60.40
2018-08-06T18:33:57.369Z,60.50
2018-08-06T18:36:26.445Z,61.50
2018-08-06T18:38:55.931Z,61.00
2018-08-06T18:41:25.235Z,61.50
2018-08-06T18:43:54.484Z,62.00
2018-08-06T18:46:23.664Z,62.40
2018-08-06T18:48:56.132Z,62.60
2018-08-06T18:51:25.272Z,63.00
2018-08-06T18:53:54.504Z,63.90
2018-08-06T18:56:23.491Z,65.10
2018-08-06T18:58:53.514Z,64.80
2018-08-06T19:01:22.555Z,65.00
2018-08-06T19:03:52.047Z,64.50
2018-08-06T19:06:21.753Z,64.60
2018-08-06T19:08:53.006Z,64.80
2018-08-06T19:11:22.168Z,65.10
2018-08-06T19:13:56.691Z,65.30
2018-08-06T19:16:25.648Z,65.60
2018-08-06T19:19:00.018Z,66.00
2018-08-06T19:21:29.198Z,66.70
2018-08-06T19:24:09.525Z,66.80
2018-08-06T19:26:39.363Z,66.80
2018-08-06T19:29:10.341Z,67.70
2018-08-06T19:31:40.087Z,67.50
2018-08-06T19:34:09.409Z,67.60
2018-08-06T19:36:57.697Z,67.90
2018-08-06T19:39:26.829Z,68.20
2018-08-06T19:41:56.875Z,68.50
2018-08-06T19:44:26.139Z,68.50
2018-08-06T19:49:29.811Z,69.10
2018-08-06T19:51:58.990Z,69.20
2018-08-06T19:54:29.137Z,69.40
2018-08-06T19:56:58.405Z,69.70
2018-08-06T19:59:27.495Z,70.00
2018-08-06T20:01:57.048Z,69.80
2018-08-06T20:04:26.214Z,69.90
2018-08-06T20:06:56.011Z,70.10
2018-08-06T20:09:25.288Z,70.10
2018-08-06T20:14:23.150Z,70.80
2018-08-06T20:16:52.326Z,71.10
2018-08-06T20:19:22.447Z,71.30
2018-08-06T20:21:52.441Z,71.70
2018-08-06T20:24:21.662Z,71.90
2018-08-06T20:26:50.790Z,71.80
2018-08-06T20:29:24.634Z,71.70
2018-08-06T20:31:59.924Z,71.90
2018-08-06T20:34:29.295Z,72.30
2018-08-06T20:39:28.714Z,72.60
2018-08-06T20:42:05.850Z,72.70
2018-08-06T20:44:35.763Z,72.70
2018-08-06T20:52:15.692Z,72.70
2018-08-06T20:54:46.209Z,73.50
2018-08-06T20:57:16.638Z,74.40
2018-08-06T20:59:45.961Z,75.20
2018-08-06T21:02:17.891Z,75.50
2018-08-06T21:04:48.242Z,75.70
2018-08-06T21:07:20.914Z,75.60
2018-08-06T21:09:50.231Z,75.90
2018-08-06T21:12:20.031Z,76.20
2018-08-06T21:17:28.411Z,76.50
2018-08-06T21:19:57.409Z,76.70
2018-08-06T21:22:27.411Z,76.90
2018-08-06T21:24:57.572Z,77.30
2018-08-06T21:27:29.454Z,77.80
2018-08-06T21:30:01.183Z,77.60
2018-08-06T21:32:32.298Z,77.80
2018-08-06T21:35:01.588Z,78.10
2018-08-06T21:37:31.308Z,78.80
2018-08-06T21:40:00.510Z,78.00
2018-08-06T21:43:01.214Z,77.90
2018-08-06T21:45:34.447Z,78.30
2018-08-06T21:48:05.667Z,78.20
2018-08-06T21:50:34.930Z,78.60
2018-08-06T21:53:04.613Z,79.00
2018-08-06T21:55:35.153Z,79.40
2018-08-06T21:58:11.727Z,79.80
2018-08-06T22:00:48.772Z,80.00
2018-08-06T22:03:18.702Z,80.20
2018-08-06T22:05:48.129Z,80.80
2018-08-06T22:08:17.475Z,82.10
2018-08-06T22:10:48.460Z,81.80
2018-08-06T22:13:17.688Z,82.10
2018-08-06T22:15:47.256Z,82.60
2018-08-06T22:18:17.406Z,83.10
2018-08-06T22:20:48.201Z,83.30
2018-08-06T22:23:17.669Z,83.90
2018-08-06T22:26:15.040Z,84.30
2018-08-06T22:28:44.646Z,84.50
2018-08-06T22:31:13.918Z,84.70
2018-08-06T22:33:43.686Z,85.10
2018-08-06T22:36:13.634Z,85.30
2018-08-06T22:38:43.599Z,85.70
2018-08-06T22:41:12.785Z,85.50
2018-08-06T22:43:43.958Z,85.80
2018-08-06T22:46:16.177Z,86.50
2018-08-06T22:48:46.861Z,86.60
2018-08-06T22:51:16.950Z,87.50
2018-08-06T22:53:51.000Z,87.60
2018-08-06T22:56:34.166Z,87.60
2018-08-06T22:59:09.315Z,88.00
2018-08-06T23:04:40.245Z,88.90
2018-08-06T23:07:09.551Z,89.30
2018-08-06T23:10:51.944Z,89.70
2018-08-06T23:16:03.386Z,90.60
2018-08-06T23:23:41.240Z,91.30
2018-08-06T23:26:10.592Z,91.50
2018-08-06T23:28:44.202Z,91.60
2018-08-06T23:31:14.598Z,91.80
2018-08-06T23:33:43.815Z,91.80
2018-08-06T23:36:13.069Z,91.80
2018-08-06T23:38:42.266Z,91.90
2018-08-06T23:41:17.395Z,92.30
2018-08-06T23:43:46.505Z,92.10
2018-08-06T23:46:15.579Z,92.30
2018-08-06T23:48:45.410Z,92.50
2018-08-06T23:51:14.702Z,92.70
2018-08-06T23:53:44.150Z,92.80
2018-08-06T23:56:14.649Z,93.10
2018-08-06T23:58:43.780Z,93.20
